sensor_id;sensor_type;location;lat;lon;timestamp;pressure;altitude;pressure_sealevel;temperature;humidity
13934;BME280;7039;52.168;9.866;2024-03-29T01:06:11;98533.03;;;8.56;70.05
13934;BME280;7039;52.168;9.866;2024-03-29T01:09:17;98528.38;;;8.49;69.85
13934;BME280;7039;52.168;9.866;2024-03-29T01:12:11;98531.09;;;8.47;69.54
13934;BME280;7039;52.168;9.866;2024-03-29T03:17:23;98456.84;;;7.84;72.26
13934;BME280;7039;52.168;9.866;2024-03-29T03:20:36;98476.66;;;7.85;72.50
13934;BME280;7039;52.168;9.866;2024-03-29T03:23:24;98484.78;;;7.80;71.99
13934;BME280;7039;52.168;9.866;2024-03-29T03:26:18;98493.25;;;7.95;71.66
13934;BME280;7039;52.168;9.866;2024-03-29T03:29:30;98495.47;;;8.12;71.11
13934;BME280;7039;52.168;9.866;2024-03-29T03:38:39;98505.16;;;8.34;70.19
13934;BME280;7039;52.168;9.866;2024-03-29T03:41:17;98500.00;;;8.22;69.76
13934;BME280;7039;52.168;9.866;2024-03-29T03:43:44;98498.34;;;8.45;69.18
13934;BME280;7039;52.168;9.866;2024-03-29T03:46:41;98497.84;;;8.40;69.09
13934;BME280;7039;52.168;9.866;2024-03-29T03:49:24;98495.75;;;8.45;68.89
13934;BME280;7039;52.168;9.866;2024-03-29T03:52:02;98489.19;;;8.52;68.54
13934;BME280;7039;52.168;9.866;2024-03-29T03:55:00;98505.69;;;8.75;68.08
13934;BME280;7039;52.168;9.866;2024-03-29T03:57:30;98500.41;;;8.52;68.27
13934;BME280;7039;52.168;9.866;2024-03-29T04:00:36;98502.25;;;8.74;67.99
13934;BME280;7039;52.168;9.866;2024-03-29T04:03:07;98511.97;;;8.84;67.73
13934;BME280;7039;52.168;9.866;2024-03-29T04:05:47;98506.41;;;8.77;67.65
13934;BME280;7039;52.168;9.866;2024-03-29T04:08:23;98503.28;;;8.72;67.56
13934;BME280;7039;52.168;9.866;2024-03-29T04:11:37;98477.44;;;8.70;67.45
13934;BME280;7039;52.168;9.866;2024-03-29T04:14:35;98481.09;;;8.68;66.99
13934;BME280;7039;52.168;9.866;2024-03-29T04:17:27;98475.94;;;8.79;67.18
13934;BME280;7039;52.168;9.866;2024-03-29T04:23:10;98505.22;;;8.92;66.84
13934;BME280;7039;52.168;9.866;2024-03-29T04:25:51;98499.72;;;8.62;67.24
13934;BME280;7039;52.168;9.866;2024-03-29T04:28:29;98489.81;;;8.67;67.28
13934;BME280;7039;52.168;9.866;2024-03-29T04:30:58;98491.66;;;8.53;67.50
13934;BME280;7039;52.168;9.866;2024-03-29T04:33:27;98491.31;;;8.58;67.25
13934;BME280;7039;52.168;9.866;2024-03-29T04:36:01;98500.22;;;8.67;67.38
13934;BME280;7039;52.168;9.866;2024-03-29T04:38:33;98509.38;;;8.84;67.15
13934;BME280;7039;52.168;9.866;2024-03-29T04:41:00;98502.22;;;8.63;66.89
13934;BME280;7039;52.168;9.866;2024-03-29T04:43:31;98511.84;;;8.85;66.52
13934;BME280;7039;52.168;9.866;2024-03-29T04:46:42;98495.59;;;8.59;67.10
13934;BME280;7039;52.168;9.866;2024-03-29T04:49:30;98517.25;;;8.71;67.13
13934;BME280;7039;52.168;9.866;2024-03-29T04:52:23;98540.63;;;8.71;66.86
13934;BME280;7039;52.168;9.866;2024-03-29T04:55:10;98558.38;;;8.77;67.14
13934;BME280;7039;52.168;9.866;2024-03-29T04:57:51;98551.84;;;8.71;66.84
13934;BME280;7039;52.168;9.866;2024-03-29T05:00:27;98578.38;;;8.88;66.72
13934;BME280;7039;52.168;9.866;2024-03-29T05:02:54;98572.00;;;8.92;66.38
13934;BME280;7039;52.168;9.866;2024-03-29T05:05:22;98562.94;;;8.97;66.02
13934;BME280;7039;52.168;9.866;2024-03-29T05:08:02;98589.63;;;9.35;65.31
13934;BME280;7039;52.168;9.866;2024-03-29T05:10:58;98591.75;;;9.30;65.67
13934;BME280;7039;52.168;9.866;2024-03-29T05:14:04;98621.56;;;9.48;65.19
13934;BME280;7039;52.168;9.866;2024-03-29T05:16:36;98628.78;;;9.56;65.33
13934;BME280;7039;52.168;9.866;2024-03-29T05:19:29;98639.09;;;9.57;65.24
13934;BME280;7039;52.168;9.866;2024-03-29T05:22:22;98625.84;;;9.49;65.95
13934;BME280;7039;52.168;9.866;2024-03-29T05:25:04;98635.75;;;9.44;67.11
13934;BME280;7039;52.168;9.866;2024-03-29T05:27:34;98639.06;;;9.35;68.82
13934;BME280;7039;52.168;9.866;2024-03-29T05:30:20;98635.66;;;9.10;71.91
13934;BME280;7039;52.168;9.866;2024-03-29T05:33:06;98630.03;;;8.92;73.88
13934;BME280;7039;52.168;9.866;2024-03-29T05:35:41;98638.97;;;8.77;76.70
13934;BME280;7039;52.168;9.866;2024-03-29T05:38:13;98634.44;;;8.68;77.94
13934;BME280;7039;52.168;9.866;2024-03-29T05:41:07;98649.28;;;8.90;79.84
13934;BME280;7039;52.168;9.866;2024-03-29T05:44:11;98639.63;;;8.68;81.29
13934;BME280;7039;52.168;9.866;2024-03-29T05:46:45;98631.47;;;8.48;80.84
13934;BME280;7039;52.168;9.866;2024-03-29T05:49:15;98630.84;;;8.45;81.95
13934;BME280;7039;52.168;9.866;2024-03-29T05:51:42;98624.13;;;8.29;82.95
13934;BME280;7039;52.168;9.866;2024-03-29T05:54:09;98631.19;;;8.27;83.95
13934;BME280;7039;52.168;9.866;2024-03-29T05:56:42;98642.91;;;8.33;84.05
13934;BME280;7039;52.168;9.866;2024-03-29T06:00:17;98641.75;;;8.37;84.89
13934;BME280;7039;52.168;9.866;2024-03-29T06:03:13;98655.91;;;8.33;86.37
13934;BME280;7039;52.168;9.866;2024-03-29T06:06:13;98663.50;;;8.36;86.41
13934;BME280;7039;52.168;9.866;2024-03-29T06:09:24;98674.88;;;8.59;86.06
13934;BME280;7039;52.168;9.866;2024-03-29T06:16:06;98670.13;;;8.53;85.28
13934;BME280;7039;52.168;9.866;2024-03-29T06:46:38;98619.81;;;8.54;84.84
13934;BME280;7039;52.168;9.866;2024-03-29T06:49:25;98609.38;;;8.43;85.65
13934;BME280;7039;52.168;9.866;2024-03-29T06:52:32;98609.50;;;8.76;84.57
13934;BME280;7039;52.168;9.866;2024-03-29T06:55:24;98594.50;;;8.69;85.14
13934;BME280;7039;52.168;9.866;2024-03-29T07:00:55;98574.56;;;8.81;85.28
13934;BME280;7039;52.168;9.866;2024-03-29T07:07:30;98579.28;;;8.75;85.25
13934;BME280;7039;52.168;9.866;2024-03-29T07:13:43;98572.69;;;8.83;85.63
13934;BME280;7039;52.168;9.866;2024-03-29T07:16:27;98568.84;;;8.64;85.31
13934;BME280;7039;52.168;9.866;2024-03-29T07:19:07;98562.91;;;8.86;85.54
13934;BME280;7039;52.168;9.866;2024-03-29T07:21:46;98548.56;;;8.81;85.61
13934;BME280;7039;52.168;9.866;2024-03-29T07:24:37;98548.44;;;9.06;84.65
13934;BME280;7039;52.168;9.866;2024-03-29T07:27:09;98540.44;;;8.85;85.26
13934;BME280;7039;52.168;9.866;2024-03-29T07:30:21;98549.44;;;8.92;85.53
13934;BME280;7039;52.168;9.866;2024-03-29T07:35:45;98529.63;;;8.67;86.20
13934;BME280;7039;52.168;9.866;2024-03-29T07:42:14;98520.28;;;8.65;87.11
13934;BME280;7039;52.168;9.866;2024-03-29T07:45:03;98508.16;;;8.76;86.39
13934;BME280;7039;52.168;9.866;2024-03-29T07:47:48;98517.88;;;8.86;86.42
13934;BME280;7039;52.168;9.866;2024-03-29T07:50:19;98525.72;;;8.62;86.96
13934;BME280;7039;52.168;9.866;2024-03-29T07:53:07;98517.47;;;8.68;87.88
13934;BME280;7039;52.168;9.866;2024-03-29T07:56:01;98516.97;;;8.63;88.23
13934;BME280;7039;52.168;9.866;2024-03-29T07:59:18;98496.59;;;8.81;87.29
13934;BME280;7039;52.168;9.866;2024-03-29T08:02:22;98498.03;;;8.85;88.29
13934;BME280;7039;52.168;9.866;2024-03-29T08:08:36;98499.22;;;8.92;88.71
13934;BME280;7039;52.168;9.866;2024-03-29T08:11:22;98499.34;;;9.13;87.46
13934;BME280;7039;52.168;9.866;2024-03-29T08:14:26;98499.88;;;9.18;88.13
13934;BME280;7039;52.168;9.866;2024-03-29T08:17:23;98494.06;;;9.14;87.38
13934;BME280;7039;52.168;9.866;2024-03-29T08:19:59;98471.34;;;9.16;87.29
13934;BME280;7039;52.168;9.866;2024-03-29T08:28:28;98464.50;;;9.49;85.60
13934;BME280;7039;52.168;9.866;2024-03-29T10:48:39;98543.97;;;12.39;78.95
13934;BME280;7039;52.168;9.866;2024-03-29T11:21:38;98614.63;;;12.88;78.73
13934;BME280;7039;52.168;9.866;2024-03-29T12:01:23;98609.84;;;15.16;70.20
13934;BME280;7039;52.168;9.866;2024-03-29T12:03:59;98588.91;;;14.52;70.19
13934;BME280;7039;52.168;9.866;2024-03-29T12:11:43;98586.00;;;14.28;71.32
13934;BME280;7039;52.168;9.866;2024-03-29T12:14:13;98597.88;;;14.77;70.62
13934;BME280;7039;52.168;9.866;2024-03-29T12:16:51;98605.84;;;14.86;69.80
13934;BME280;7039;52.168;9.866;2024-03-29T12:21:55;98597.94;;;15.03;69.66
13934;BME280;7039;52.168;9.866;2024-03-29T12:26:54;98582.78;;;14.61;69.73
13934;BME280;7039;52.168;9.866;2024-03-29T12:29:58;98589.63;;;15.08;69.31
13934;BME280;7039;52.168;9.866;2024-03-29T12:32:28;98581.75;;;15.08;70.48
13934;BME280;7039;52.168;9.866;2024-03-29T12:35:16;98585.56;;;15.14;68.87
13934;BME280;7039;52.168;9.866;2024-03-29T12:38:01;98596.25;;;14.94;70.31
13934;BME280;7039;52.168;9.866;2024-03-29T12:48:40;98635.34;;;15.85;68.50
13934;BME280;7039;52.168;9.866;2024-03-29T12:51:07;98630.47;;;15.47;67.12
13934;BME280;7039;52.168;9.866;2024-03-29T12:53:47;98633.66;;;15.84;68.12
13934;BME280;7039;52.168;9.866;2024-03-29T12:56:40;98629.06;;;15.60;67.71
13934;BME280;7039;52.168;9.866;2024-03-29T13:13:13;98652.72;;;15.78;67.06
13934;BME280;7039;52.168;9.866;2024-03-29T13:15:44;98670.22;;;15.96;66.10
13934;BME280;7039;52.168;9.866;2024-03-29T13:21:28;98688.41;;;16.15;66.04
13934;BME280;7039;52.168;9.866;2024-03-29T13:23:59;98686.81;;;15.96;65.85
13934;BME280;7039;52.168;9.866;2024-03-29T13:26:27;98680.19;;;16.18;63.97
13934;BME280;7039;52.168;9.866;2024-03-29T13:28:56;98674.56;;;15.79;64.54
13934;BME280;7039;52.168;9.866;2024-03-29T13:31:24;98669.09;;;15.54;65.50
13934;BME280;7039;52.168;9.866;2024-03-29T13:33:53;98668.78;;;15.57;65.93
13934;BME280;7039;52.168;9.866;2024-03-29T13:36:31;98679.94;;;15.51;66.06
13934;BME280;7039;52.168;9.866;2024-03-29T13:38:59;98679.94;;;15.51;66.62
13934;BME280;7039;52.168;9.866;2024-03-29T13:41:27;98664.94;;;15.70;65.52
13934;BME280;7039;52.168;9.866;2024-03-29T13:43:56;98674.88;;;15.58;65.44
13934;BME280;7039;52.168;9.866;2024-03-29T13:46:28;98681.19;;;15.65;65.07
13934;BME280;7039;52.168;9.866;2024-03-29T13:48:56;98684.84;;;15.98;64.90
13934;BME280;7039;52.168;9.866;2024-03-29T13:51:29;98708.88;;;17.31;61.53
13934;BME280;7039;52.168;9.866;2024-03-29T13:54:11;98695.16;;;16.95;61.66
13934;BME280;7039;52.168;9.866;2024-03-29T13:56:40;98695.66;;;16.90;61.25
13934;BME280;7039;52.168;9.866;2024-03-29T13:59:07;98718.19;;;17.01;61.16
13934;BME280;7039;52.168;9.866;2024-03-29T14:01:34;98708.03;;;17.14;61.06
13934;BME280;7039;52.168;9.866;2024-03-29T14:04:00;98686.94;;;16.98;61.07
13934;BME280;7039;52.168;9.866;2024-03-29T14:06:27;98687.16;;;16.27;62.85
13934;BME280;7039;52.168;9.866;2024-03-29T14:08:56;98691.47;;;16.37;62.85
13934;BME280;7039;52.168;9.866;2024-03-29T14:11:29;98682.06;;;16.26;63.10
13934;BME280;7039;52.168;9.866;2024-03-29T14:13:58;98685.69;;;15.55;63.13
13934;BME280;7039;52.168;9.866;2024-03-29T14:16:25;98675.03;;;15.56;64.27
13934;BME280;7039;52.168;9.866;2024-03-29T14:18:52;98664.25;;;15.85;63.32
13934;BME280;7039;52.168;9.866;2024-03-29T14:21:20;98674.78;;;16.20;63.21
13934;BME280;7039;52.168;9.866;2024-03-29T14:23:49;98693.44;;;16.77;62.75
13934;BME280;7039;52.168;9.866;2024-03-29T14:26:18;98711.50;;;17.39;60.48
13934;BME280;7039;52.168;9.866;2024-03-29T14:28:47;98705.25;;;17.40;60.43
13934;BME280;7039;52.168;9.866;2024-03-29T14:32:02;98713.81;;;17.34;59.80
13934;BME280;7039;52.168;9.866;2024-03-29T14:34:40;98692.34;;;16.96;59.33
13934;BME280;7039;52.168;9.866;2024-03-29T14:37:22;98708.88;;;17.31;59.40
13934;BME280;7039;52.168;9.866;2024-03-29T14:40:15;98714.63;;;18.00;58.34
13934;BME280;7039;52.168;9.866;2024-03-29T14:42:59;98726.31;;;18.22;56.72
13934;BME280;7039;52.168;9.866;2024-03-29T14:45:36;98703.22;;;18.16;56.56
13934;BME280;7039;52.168;9.866;2024-03-29T14:48:03;98681.19;;;17.68;57.61
13934;BME280;7039;52.168;9.866;2024-03-29T14:50:44;98661.53;;;16.80;59.40
13934;BME280;7039;52.168;9.866;2024-03-29T14:53:11;98682.91;;;18.25;56.32
13934;BME280;7039;52.168;9.866;2024-03-29T14:55:37;98696.97;;;18.17;56.71
13934;BME280;7039;52.168;9.866;2024-03-29T14:58:12;98680.28;;;18.16;57.03
13934;BME280;7039;52.168;9.866;2024-03-29T15:00:41;98660.59;;;17.71;57.47
13934;BME280;7039;52.168;9.866;2024-03-29T15:03:11;98675.88;;;18.01;57.63
13934;BME280;7039;52.168;9.866;2024-03-29T15:05:39;98670.81;;;17.74;56.63
13934;BME280;7039;52.168;9.866;2024-03-29T15:08:08;98692.59;;;18.49;55.89
13934;BME280;7039;52.168;9.866;2024-03-29T15:10:42;98678.41;;;17.69;57.09
13934;BME280;7039;52.168;9.866;2024-03-29T15:13:18;98686.47;;;17.68;57.38
13934;BME280;7039;52.168;9.866;2024-03-29T15:22:33;98711.72;;;18.43;55.88
13934;BME280;7039;52.168;9.866;2024-03-29T15:25:00;98705.16;;;19.09;55.10
13934;BME280;7039;52.168;9.866;2024-03-29T15:27:27;98696.53;;;17.89;56.56
13934;BME280;7039;52.168;9.866;2024-03-29T15:30:14;98679.06;;;17.47;57.83
13934;BME280;7039;52.168;9.866;2024-03-29T15:32:40;98683.84;;;17.35;58.16
13934;BME280;7039;52.168;9.866;2024-03-29T15:35:08;98710.03;;;18.58;57.79
13934;BME280;7039;52.168;9.866;2024-03-29T15:37:36;98701.69;;;18.38;56.85
13934;BME280;7039;52.168;9.866;2024-03-29T15:40:05;98699.88;;;18.39;56.60
13934;BME280;7039;52.168;9.866;2024-03-29T15:42:43;98724.78;;;19.15;54.85
13934;BME280;7039;52.168;9.866;2024-03-29T15:45:10;98722.00;;;18.85;54.86
13934;BME280;7039;52.168;9.866;2024-03-29T15:47:37;98711.78;;;18.74;55.39
13934;BME280;7039;52.168;9.866;2024-03-29T15:50:05;98696.47;;;18.22;56.12
13934;BME280;7039;52.168;9.866;2024-03-29T15:52:31;98688.75;;;17.79;56.70
13934;BME280;7039;52.168;9.866;2024-03-29T15:55:00;98686.47;;;17.19;58.19
13934;BME280;7039;52.168;9.866;2024-03-29T15:57:27;98686.00;;;17.40;57.62
13934;BME280;7039;52.168;9.866;2024-03-29T15:59:54;98725.66;;;18.20;56.85
13934;BME280;7039;52.168;9.866;2024-03-29T16:02:21;98727.56;;;18.43;55.61
13934;BME280;7039;52.168;9.866;2024-03-29T16:04:48;98733.34;;;18.46;54.72
13934;BME280;7039;52.168;9.866;2024-03-29T16:07:18;98745.91;;;18.92;53.92
13934;BME280;7039;52.168;9.866;2024-03-29T16:09:46;98735.06;;;18.70;55.23
13934;BME280;7039;52.168;9.866;2024-03-29T16:12:21;98709.72;;;17.56;58.29
13934;BME280;7039;52.168;9.866;2024-03-29T16:14:48;98714.16;;;17.72;57.50
13934;BME280;7039;52.168;9.866;2024-03-29T16:19:50;98706.06;;;17.32;58.09
13934;BME280;7039;52.168;9.866;2024-03-29T16:22:18;98720.56;;;16.69;60.65
13934;BME280;7039;52.168;9.866;2024-03-29T16:24:45;98723.84;;;16.29;62.59
13934;BME280;7039;52.168;9.866;2024-03-29T16:27:13;98713.78;;;15.72;63.63
13934;BME280;7039;52.168;9.866;2024-03-29T16:29:42;98705.56;;;15.57;64.27
13934;BME280;7039;52.168;9.866;2024-03-29T16:32:09;98705.13;;;15.44;65.93
13934;BME280;7039;52.168;9.866;2024-03-29T16:34:37;98706.56;;;15.56;64.75
13934;BME280;7039;52.168;9.866;2024-03-29T16:37:04;98697.09;;;15.45;65.05
13934;BME280;7039;52.168;9.866;2024-03-29T16:39:31;98677.34;;;15.41;64.66
13934;BME280;7039;52.168;9.866;2024-03-29T16:41:57;98671.41;;;15.75;63.65
13934;BME280;7039;52.168;9.866;2024-03-29T16:44:24;98693.88;;;16.22;62.31
13934;BME280;7039;52.168;9.866;2024-03-29T16:46:52;98676.00;;;15.37;64.80
13934;BME280;7039;52.168;9.866;2024-03-29T16:49:20;98699.06;;;15.43;65.50
13934;BME280;7039;52.168;9.866;2024-03-29T16:51:51;98698.69;;;15.02;66.81
13934;BME280;7039;52.168;9.866;2024-03-29T16:54:18;98688.09;;;14.39;68.32
13934;BME280;7039;52.168;9.866;2024-03-29T16:56:44;98700.63;;;14.55;68.52
13934;BME280;7039;52.168;9.866;2024-03-29T16:59:11;98680.59;;;14.54;68.66
13934;BME280;7039;52.168;9.866;2024-03-29T17:01:37;98670.66;;;14.20;69.51
13934;BME280;7039;52.168;9.866;2024-03-29T17:04:06;98677.34;;;14.32;69.71
13934;BME280;7039;52.168;9.866;2024-03-29T17:06:32;98677.72;;;14.10;69.92
13934;BME280;7039;52.168;9.866;2024-03-29T17:08:59;98686.44;;;14.10;70.61
13934;BME280;7039;52.168;9.866;2024-03-29T17:11:25;98675.44;;;13.87;71.20
13934;BME280;7039;52.168;9.866;2024-03-29T17:13:52;98692.94;;;14.06;70.90
13934;BME280;7039;52.168;9.866;2024-03-29T17:16:18;98685.94;;;13.87;71.04
13934;BME280;7039;52.168;9.866;2024-03-29T17:18:45;98679.88;;;13.87;71.35
13934;BME280;7039;52.168;9.866;2024-03-29T17:21:13;98691.34;;;13.86;71.58
13934;BME280;7039;52.168;9.866;2024-03-29T17:23:40;98707.84;;;13.96;71.51
13934;BME280;7039;52.168;9.866;2024-03-29T17:26:07;98704.44;;;13.86;71.85
13934;BME280;7039;52.168;9.866;2024-03-29T17:28:45;98731.69;;;14.03;71.77
13934;BME280;7039;52.168;9.866;2024-03-29T17:31:12;98728.00;;;13.95;72.27
13934;BME280;7039;52.168;9.866;2024-03-29T17:33:41;98733.94;;;13.97;72.53
13934;BME280;7039;52.168;9.866;2024-03-29T17:36:07;98737.72;;;13.56;73.29
13934;BME280;7039;52.168;9.866;2024-03-29T17:38:40;98744.72;;;13.75;73.19
13934;BME280;7039;52.168;9.866;2024-03-29T17:41:06;98725.84;;;13.52;73.08
13934;BME280;7039;52.168;9.866;2024-03-29T17:43:36;98736.75;;;13.47;72.96
13934;BME280;7039;52.168;9.866;2024-03-29T17:46:10;98734.13;;;13.38;73.55
13934;BME280;7039;52.168;9.866;2024-03-29T17:48:38;98737.81;;;13.35;73.51
13934;BME280;7039;52.168;9.866;2024-03-29T17:51:05;98762.09;;;13.47;73.40
13934;BME280;7039;52.168;9.866;2024-03-29T17:53:45;98765.13;;;13.52;73.32
13934;BME280;7039;52.168;9.866;2024-03-29T17:56:13;98757.28;;;13.52;72.83
13934;BME280;7039;52.168;9.866;2024-03-29T17:58:42;98760.19;;;13.58;73.34
13934;BME280;7039;52.168;9.866;2024-03-29T18:01:12;98777.94;;;13.35;74.71
13934;BME280;7039;52.168;9.866;2024-03-29T18:03:44;98800.00;;;13.52;73.67
13934;BME280;7039;52.168;9.866;2024-03-29T18:06:18;98786.47;;;13.28;74.84
13934;BME280;7039;52.168;9.866;2024-03-29T18:08:52;98781.50;;;13.34;74.66
13934;BME280;7039;52.168;9.866;2024-03-29T18:11:21;98784.13;;;13.34;74.49
13934;BME280;7039;52.168;9.866;2024-03-29T18:13:53;98803.56;;;13.42;74.05
13934;BME280;7039;52.168;9.866;2024-03-29T18:16:23;98801.66;;;13.34;74.26
13934;BME280;7039;52.168;9.866;2024-03-29T18:21:45;98805.75;;;13.27;74.49
13934;BME280;7039;52.168;9.866;2024-03-29T18:24:16;98815.91;;;13.20;75.03
13934;BME280;7039;52.168;9.866;2024-03-29T18:38:08;98822.09;;;13.09;75.18
13934;BME280;7039;52.168;9.866;2024-03-29T18:43:19;98816.03;;;13.19;74.81
13934;BME280;7039;52.168;9.866;2024-03-29T18:55:00;98787.06;;;13.01;75.56
13934;BME280;7039;52.168;9.866;2024-03-29T18:57:26;98785.34;;;12.80;76.22
13934;BME280;7039;52.168;9.866;2024-03-29T19:03:38;98804.25;;;12.93;75.91
13934;BME280;7039;52.168;9.866;2024-03-29T19:06:10;98796.00;;;12.88;76.33
13934;BME280;7039;52.168;9.866;2024-03-29T19:15:12;98787.28;;;12.78;76.63
13934;BME280;7039;52.168;9.866;2024-03-29T19:40:33;98793.16;;;12.70;78.62
13934;BME280;7039;52.168;9.866;2024-03-29T19:43:02;98799.75;;;12.65;79.07
13934;BME280;7039;52.168;9.866;2024-03-29T19:59:15;98786.66;;;12.65;79.64
13934;BME280;7039;52.168;9.866;2024-03-29T20:01:42;98790.03;;;12.77;79.72
13934;BME280;7039;52.168;9.866;2024-03-29T20:33:21;98804.03;;;13.06;80.02
13934;BME280;7039;52.168;9.866;2024-03-29T20:49:00;98821.78;;;13.33;78.56
13934;BME280;7039;52.168;9.866;2024-03-29T20:51:33;98844.25;;;13.36;78.62
13934;BME280;7039;52.168;9.866;2024-03-29T20:54:04;98859.25;;;13.44;78.35
13934;BME280;7039;52.168;9.866;2024-03-29T20:56:34;98863.84;;;13.51;78.12
13934;BME280;7039;52.168;9.866;2024-03-29T20:59:02;98858.59;;;13.51;78.06
13934;BME280;7039;52.168;9.866;2024-03-29T21:04:10;98862.59;;;13.46;78.71
13934;BME280;7039;52.168;9.866;2024-03-29T21:06:55;98865.44;;;13.33;78.81
13934;BME280;7039;52.168;9.866;2024-03-29T21:11:58;98862.53;;;13.26;79.33
13934;BME280;7039;52.168;9.866;2024-03-29T21:14:29;98857.72;;;13.31;79.08
13934;BME280;7039;52.168;9.866;2024-03-29T21:16:57;98860.47;;;13.30;79.22
13934;BME280;7039;52.168;9.866;2024-03-29T21:30:40;98839.00;;;12.44;83.43
13934;BME280;7039;52.168;9.866;2024-03-29T21:33:12;98838.31;;;12.42;83.94
13934;BME280;7039;52.168;9.866;2024-03-29T21:53:17;98903.28;;;12.88;83.12
13934;BME280;7039;52.168;9.866;2024-03-29T21:55:49;98890.16;;;12.79;82.48
13934;BME280;7039;52.168;9.866;2024-03-29T21:58:16;98908.97;;;12.72;82.75
13934;BME280;7039;52.168;9.866;2024-03-29T22:00:43;98906.63;;;12.69;83.30
13934;BME280;7039;52.168;9.866;2024-03-29T22:03:18;98922.84;;;12.42;84.73
13934;BME280;7039;52.168;9.866;2024-03-29T22:05:49;98936.97;;;12.82;82.43
13934;BME280;7039;52.168;9.866;2024-03-29T22:08:19;98942.50;;;13.09;81.34
13934;BME280;7039;52.168;9.866;2024-03-29T22:10:48;98947.03;;;13.07;81.27
13934;BME280;7039;52.168;9.866;2024-03-29T22:13:16;98928.28;;;13.02;81.04
13934;BME280;7039;52.168;9.866;2024-03-29T22:15:59;98930.63;;;13.05;80.98
13934;BME280;7039;52.168;9.866;2024-03-29T22:18:31;98903.78;;;12.82;81.69
13934;BME280;7039;52.168;9.866;2024-03-29T22:20:58;98918.16;;;12.88;82.09
13934;BME280;7039;52.168;9.866;2024-03-29T22:23:27;98920.06;;;12.65;83.01
13934;BME280;7039;52.168;9.866;2024-03-29T22:25:54;98907.81;;;12.86;81.92
13934;BME280;7039;52.168;9.866;2024-03-29T22:28:25;98922.41;;;12.89;81.56
13934;BME280;7039;52.168;9.866;2024-03-29T22:30:52;98913.88;;;12.66;82.61
13934;BME280;7039;52.168;9.866;2024-03-29T22:33:26;98911.09;;;12.79;81.73
13934;BME280;7039;52.168;9.866;2024-03-29T22:35:54;98924.28;;;13.08;81.04
13934;BME280;7039;52.168;9.866;2024-03-29T22:38:36;98917.72;;;13.13;80.63
13934;BME280;7039;52.168;9.866;2024-03-29T22:41:06;98921.16;;;13.14;80.30
13934;BME280;7039;52.168;9.866;2024-03-29T22:43:34;98919.81;;;13.20;80.31
13934;BME280;7039;52.168;9.866;2024-03-29T22:46:03;98919.50;;;13.13;80.34
13934;BME280;7039;52.168;9.866;2024-03-29T22:51:06;98923.38;;;13.19;79.78
13934;BME280;7039;52.168;9.866;2024-03-29T22:53:44;98925.19;;;13.18;79.90
13934;BME280;7039;52.168;9.866;2024-03-29T22:56:11;98915.88;;;13.04;80.22
13934;BME280;7039;52.168;9.866;2024-03-29T22:58:50;98935.78;;;13.16;79.92
13934;BME280;7039;52.168;9.866;2024-03-29T23:01:17;98932.84;;;13.10;79.73
13934;BME280;7039;52.168;9.866;2024-03-29T23:03:46;98921.56;;;13.09;79.90
13934;BME280;7039;52.168;9.866;2024-03-29T23:06:12;98913.31;;;12.83;81.42
13934;BME280;7039;52.168;9.866;2024-03-29T23:08:43;98917.63;;;12.94;81.51
13934;BME280;7039;52.168;9.866;2024-03-29T23:11:09;98924.84;;;13.02;81.07
13934;BME280;7039;52.168;9.866;2024-03-29T23:13:37;98925.25;;;13.07;80.72
13934;BME280;7039;52.168;9.866;2024-03-29T23:16:05;98919.13;;;12.96;80.96
13934;BME280;7039;52.168;9.866;2024-03-29T23:18:36;98938.31;;;12.97;81.69
13934;BME280;7039;52.168;9.866;2024-03-29T23:21:04;98925.00;;;12.79;81.71
13934;BME280;7039;52.168;9.866;2024-03-29T23:23:33;98915.63;;;12.77;81.43
13934;BME280;7039;52.168;9.866;2024-03-29T23:26:00;98913.94;;;12.75;81.47
13934;BME280;7039;52.168;9.866;2024-03-29T23:28:27;98916.88;;;12.82;81.66
13934;BME280;7039;52.168;9.866;2024-03-29T23:30:54;98920.22;;;12.94;81.04
13934;BME280;7039;52.168;9.866;2024-03-29T23:33:22;98929.09;;;13.03;80.84
13934;BME280;7039;52.168;9.866;2024-03-29T23:35:53;98918.66;;;12.82;81.24
13934;BME280;7039;52.168;9.866;2024-03-29T23:38:23;98921.19;;;12.93;81.19
13934;BME280;7039;52.168;9.866;2024-03-29T23:41:13;98901.06;;;12.84;81.88
13934;BME280;7039;52.168;9.866;2024-03-29T23:44:16;98908.16;;;12.72;81.99
13934;BME280;7039;52.168;9.866;2024-03-29T23:47:09;98911.00;;;12.69;82.68
13934;BME280;7039;52.168;9.866;2024-03-29T23:49:45;98903.22;;;12.79;82.38
13934;BME280;7039;52.168;9.866;2024-03-29T23:52:21;98899.22;;;12.74;82.72
13934;BME280;7039;52.168;9.866;2024-03-29T23:54:59;98911.22;;;12.77;82.69
